createdAt,value
2023-11-23T00:04:45.035Z,1015.04
2023-11-23T00:04:50.729Z,1014.99
2023-11-23T00:04:56.411Z,1014.99
2023-11-23T00:05:02.098Z,1015.03
2023-11-23T00:05:07.787Z,1015.03
2023-11-23T00:05:13.485Z,1015.00
2023-11-23T00:05:47.123Z,1015.01
2023-11-23T00:05:52.791Z,1015.01
2023-11-23T00:05:58.449Z,1015.01
2023-11-23T00:06:04.197Z,1015.01
2023-11-23T00:06:09.867Z,1015.01
2023-11-23T00:06:15.550Z,1014.99
2023-11-23T00:06:49.171Z,1015.01
2023-11-23T00:06:54.854Z,1014.95
2023-11-23T00:07:00.541Z,1014.96
2023-11-23T00:07:06.223Z,1014.97
2023-11-23T00:07:11.897Z,1014.98
2023-11-23T00:07:17.575Z,1014.99
2023-11-23T00:07:51.174Z,1015.03
2023-11-23T00:07:56.849Z,1015.03
2023-11-23T00:08:02.530Z,1015.01
2023-11-23T00:08:08.213Z,1015.02
2023-11-23T00:08:13.898Z,1014.99
2023-11-23T00:08:19.580Z,1014.99
2023-11-23T00:08:53.218Z,1014.99
2023-11-23T00:08:58.876Z,1015.00
2023-11-23T00:09:04.587Z,1014.99
2023-11-23T00:09:10.303Z,1014.99
2023-11-23T00:09:15.992Z,1014.99
2023-11-23T00:09:21.623Z,1014.99
2023-11-23T00:09:55.181Z,1014.96
2023-11-23T00:10:00.860Z,1014.95
2023-11-23T00:10:06.720Z,1014.98
2023-11-23T00:10:12.410Z,1015.00
2023-11-23T00:10:18.085Z,1015.01
2023-11-23T00:10:23.767Z,1014.99
2023-11-23T00:10:57.294Z,1014.87
2023-11-23T00:11:03.000Z,1014.83
2023-11-23T00:11:08.666Z,1014.83
2023-11-23T00:11:14.353Z,1014.84
2023-11-23T00:11:20.018Z,1014.86
2023-11-23T04:14:52.816Z,1012.33
2023-11-23T04:14:58.801Z,1012.31
2023-11-23T04:15:04.488Z,1012.30
2023-11-23T04:15:10.159Z,1012.30
2023-11-23T04:15:15.897Z,1012.29
2023-11-23T04:15:21.590Z,1012.29
2023-11-23T04:15:55.125Z,1012.29
2023-11-23T04:16:00.797Z,1012.28
2023-11-23T04:16:06.491Z,1012.28
2023-11-23T04:16:12.186Z,1012.28
2023-11-23T04:16:17.860Z,1012.28
2023-11-23T04:16:23.537Z,1012.27
2023-11-23T04:16:57.148Z,1012.29
2023-11-23T04:17:02.792Z,1012.27
2023-11-23T04:17:08.466Z,1012.28
2023-11-23T04:17:14.160Z,1012.28
2023-11-23T04:17:19.841Z,1012.27
2023-11-23T04:17:25.529Z,1012.28
2023-11-23T04:17:59.096Z,1012.31
2023-11-23T04:18:04.846Z,1012.33
2023-11-23T04:18:10.519Z,1012.35
2023-11-23T04:18:16.200Z,1012.33
2023-11-23T04:18:21.918Z,1012.31
2023-11-23T04:18:27.567Z,1012.29
2023-11-23T04:19:01.159Z,1012.31
2023-11-23T04:19:06.846Z,1012.33
2023-11-23T04:19:12.526Z,1012.32
2023-11-23T04:19:18.191Z,1012.30
2023-11-23T04:19:23.867Z,1012.30
2023-11-23T04:19:29.580Z,1012.31
2023-11-23T04:20:03.093Z,1012.30
2023-11-23T04:20:08.789Z,1012.29
2023-11-23T04:20:14.445Z,1012.30
2023-11-23T04:20:20.123Z,1012.30
2023-11-23T04:20:25.811Z,1012.28
2023-11-23T04:20:33.719Z,1012.28
2023-11-23T04:21:08.064Z,1012.30
2023-11-23T04:21:13.813Z,1012.30
2023-11-23T04:21:19.473Z,1012.29
2023-11-23T04:21:25.148Z,1012.30
2023-11-23T04:21:30.800Z,1012.32
2023-11-23T04:21:36.478Z,1012.31
2023-11-23T04:22:10.132Z,1012.39
2023-11-23T04:22:15.798Z,1012.33
2023-11-23T04:22:21.507Z,1012.33
2023-11-23T04:22:27.193Z,1012.33
2023-11-23T04:22:32.871Z,1012.31
2023-11-23T04:22:38.582Z,1012.31
2023-11-23T04:23:12.951Z,1012.33
2023-11-23T04:23:18.640Z,1012.33
2023-11-23T04:23:24.321Z,1012.33
2023-11-23T04:23:29.996Z,1012.32
2023-11-23T04:23:35.681Z,1012.32
2023-11-23T04:23:41.360Z,1012.33
2023-11-23T04:24:14.987Z,1012.31
2023-11-23T04:24:20.672Z,1012.30
2023-11-23T04:24:26.362Z,1012.31
2023-11-23T04:24:31.991Z,1012.31
2023-11-23T04:24:37.671Z,1012.34
2023-11-23T04:24:43.414Z,1012.35
2023-11-23T04:25:16.950Z,1012.27
2023-11-23T04:25:22.615Z,1012.27
2023-11-23T04:25:28.298Z,1012.30
2023-11-23T04:25:33.973Z,1012.31
2023-11-23T04:25:39.648Z,1012.33
2023-11-23T04:25:45.323Z,1012.32
2023-11-23T04:26:18.898Z,1012.34
2023-11-23T04:26:24.639Z,1012.35
2023-11-23T04:26:30.286Z,1012.33
2023-11-23T04:26:35.961Z,1012.33
2023-11-23T04:26:41.653Z,1012.32
2023-11-23T04:26:47.341Z,1012.32
2023-11-23T04:27:20.930Z,1012.30
2023-11-23T04:27:26.599Z,1012.31
2023-11-23T04:27:32.321Z,1012.33
2023-11-23T04:27:37.937Z,1012.34
2023-11-23T04:27:43.610Z,1012.34
2023-11-23T04:27:49.377Z,1012.35
2023-11-23T04:28:22.845Z,1012.34
2023-11-23T04:28:28.517Z,1012.34
2023-11-23T04:28:34.189Z,1012.34
2023-11-23T04:28:39.916Z,1012.33
2023-11-23T04:28:45.574Z,1012.34
2023-11-23T04:28:51.255Z,1012.35
2023-11-23T04:29:24.839Z,1012.38
2023-11-23T04:29:30.511Z,1012.38
2023-11-23T04:29:36.188Z,1012.38
2023-11-23T04:29:41.866Z,1012.38
2023-11-23T04:29:47.611Z,1012.36
2023-11-23T04:29:53.263Z,1012.33
2023-11-23T04:30:26.845Z,1012.33
2023-11-23T04:30:32.524Z,1012.34
2023-11-23T04:30:38.176Z,1012.34
2023-11-23T04:30:43.897Z,1012.34
2023-11-23T04:30:49.564Z,1012.33
2023-11-23T04:30:55.251Z,1012.33
2023-11-23T04:31:28.865Z,1012.34
2023-11-23T04:31:34.488Z,1012.34
2023-11-23T04:31:40.167Z,1012.35
2023-11-23T04:31:45.843Z,1012.35
2023-11-23T04:31:51.522Z,1012.36
2023-11-23T04:31:57.200Z,1012.37
2023-11-23T04:32:30.799Z,1012.34
2023-11-23T04:32:36.583Z,1012.36
2023-11-23T04:32:42.248Z,1012.36
2023-11-23T04:32:47.979Z,1012.35
2023-11-23T04:32:53.754Z,1012.31
2023-11-23T04:33:00.322Z,1012.30
2023-11-23T04:33:34.158Z,1012.31
2023-11-23T04:33:40.192Z,1012.30
2023-11-23T04:33:45.996Z,1012.29
2023-11-23T04:33:51.686Z,1012.31
2023-11-23T04:33:57.434Z,1012.33
2023-11-23T04:34:03.209Z,1012.32
2023-11-23T04:34:36.840Z,1012.30
2023-11-23T04:34:42.489Z,1012.28
2023-11-23T04:34:48.158Z,1012.29
2023-11-23T04:34:53.845Z,1012.29
2023-11-23T04:34:59.526Z,1012.26
2023-11-23T04:35:05.211Z,1012.25
2023-11-23T04:35:38.748Z,1012.27
2023-11-23T04:35:44.496Z,1012.27
2023-11-23T04:35:50.161Z,1012.29
2023-11-23T04:35:55.807Z,1012.31
2023-11-23T04:36:01.508Z,1012.30
2023-11-23T04:36:07.190Z,1012.28
2023-11-23T04:36:40.788Z,1012.25
2023-11-23T04:36:46.465Z,1012.25
2023-11-23T04:36:52.213Z,1012.24
2023-11-23T04:36:57.852Z,1012.25
2023-11-23T04:37:03.531Z,1012.24
2023-11-23T04:37:09.222Z,1012.25
2023-11-23T04:37:42.767Z,1012.29
2023-11-23T04:37:48.432Z,1012.30
2023-11-23T04:37:54.107Z,1012.26
2023-11-23T04:37:59.866Z,1012.26
2023-11-23T04:38:05.489Z,1012.29
2023-11-23T04:38:11.164Z,1012.27
2023-11-23T04:38:44.746Z,1012.31
2023-11-23T04:38:50.467Z,1012.29
2023-11-23T04:38:56.146Z,1012.27
2023-11-23T04:39:01.871Z,1012.25
2023-11-23T04:39:07.495Z,1012.24
2023-11-23T04:39:13.168Z,1012.26
2023-11-23T04:39:46.712Z,1012.29
2023-11-23T04:39:52.416Z,1012.29
2023-11-23T04:39:58.062Z,1012.29
2023-11-23T04:40:03.738Z,1012.26
2023-11-23T04:40:09.452Z,1012.30
2023-11-23T04:40:15.122Z,1012.31
2023-11-23T04:40:48.680Z,1012.31
2023-11-23T04:40:54.341Z,1012.32
2023-11-23T04:41:00.040Z,1012.31
2023-11-23T04:41:05.711Z,1012.30
2023-11-23T04:41:11.390Z,1012.28
2023-11-23T04:41:17.066Z,1012.28
2023-11-23T04:41:50.663Z,1012.28
2023-11-23T04:41:56.340Z,1012.29
2023-11-23T04:42:02.039Z,1012.29
2023-11-23T04:42:07.694Z,1012.29
2023-11-23T04:42:13.392Z,1012.29
2023-11-23T04:42:19.055Z,1012.27
2023-11-23T04:42:52.611Z,1012.29
2023-11-23T04:42:58.294Z,1012.29
2023-11-23T04:43:03.968Z,1012.29
2023-11-23T04:43:09.654Z,1012.28
2023-11-23T04:43:15.337Z,1012.30
2023-11-23T04:43:21.022Z,1012.31
2023-11-23T04:43:54.551Z,1012.30
2023-11-23T04:44:00.243Z,1012.27
2023-11-23T04:44:05.905Z,1012.23
2023-11-23T04:44:11.582Z,1012.24
2023-11-23T04:44:17.259Z,1012.23
2023-11-23T04:44:22.935Z,1012.22
2023-11-23T04:44:56.543Z,1012.21
2023-11-23T04:45:02.299Z,1012.21
2023-11-23T04:45:07.973Z,1012.22
2023-11-23T04:45:13.659Z,1012.22
2023-11-23T04:45:19.309Z,1012.23
2023-11-23T04:45:25.029Z,1012.23
2023-11-23T04:45:58.608Z,1012.24
2023-11-23T04:46:04.349Z,1012.22
2023-11-23T04:46:10.027Z,1012.21
2023-11-23T04:46:15.687Z,1012.20
2023-11-23T04:46:21.382Z,1012.19
2023-11-23T04:46:27.041Z,1012.18
2023-11-23T04:47:00.563Z,1012.17
2023-11-23T04:47:06.237Z,1012.17
2023-11-23T04:47:11.926Z,1012.17
2023-11-23T04:47:17.607Z,1012.17
2023-11-23T04:47:23.371Z,1012.16
2023-11-23T04:47:29.041Z,1012.17
2023-11-23T04:48:02.655Z,1012.15
2023-11-23T04:48:08.442Z,1012.14
2023-11-23T04:48:14.307Z,1012.14
2023-11-23T04:48:20.084Z,1012.14
2023-11-23T04:48:25.780Z,1012.14
2023-11-23T04:48:31.427Z,1012.12
2023-11-23T04:49:05.003Z,1012.12
2023-11-23T04:49:10.654Z,1012.12
2023-11-23T04:49:16.333Z,1012.13
2023-11-23T04:49:22.055Z,1012.11
2023-11-23T04:49:27.704Z,1012.12
2023-11-23T04:49:33.395Z,1012.11
2023-11-23T04:50:06.938Z,1012.08
2023-11-23T04:50:12.604Z,1012.09
2023-11-23T04:50:21.416Z,1012.10
2023-11-23T04:50:27.988Z,1012.09
2023-11-23T04:50:33.700Z,1012.07
2023-11-23T04:50:39.344Z,1012.06
2023-11-23T04:51:07.424Z,1012.02
2023-11-23T04:51:13.108Z,1012.03
2023-11-23T04:51:18.794Z,1012.02
2023-11-23T04:51:29.981Z,1012.04
2023-11-23T04:51:35.660Z,1012.04
2023-11-23T04:51:41.370Z,1012.04
2023-11-23T04:52:09.339Z,1012.00
2023-11-23T04:52:15.072Z,1012.00
2023-11-23T04:52:20.721Z,1012.02
2023-11-23T04:52:31.966Z,1012.03
2023-11-23T04:52:37.652Z,1012.03
2023-11-23T04:52:43.326Z,1012.03
2023-11-23T04:53:11.285Z,1011.98
2023-11-23T04:53:16.955Z,1011.98
2023-11-23T04:53:22.702Z,1011.96
2023-11-23T04:53:33.926Z,1011.95
2023-11-23T04:53:39.588Z,1011.99
2023-11-23T04:53:45.284Z,1012.02
2023-11-23T04:54:13.308Z,1012.02
2023-11-23T04:54:18.947Z,1012.01
2023-11-23T04:54:24.697Z,1012.01
2023-11-23T04:54:35.882Z,1011.98
2023-11-23T04:54:41.559Z,1011.98
2023-11-23T04:54:47.237Z,1011.97
2023-11-23T04:55:15.304Z,1011.99
2023-11-23T04:55:20.981Z,1012.00
2023-11-23T04:55:26.664Z,1011.99
2023-11-23T04:55:37.910Z,1011.96
2023-11-23T04:55:43.586Z,1011.97
2023-11-23T04:55:49.264Z,1011.96
2023-11-23T04:56:17.245Z,1012.00
2023-11-23T04:56:22.931Z,1012.01
2023-11-23T04:56:28.593Z,1012.03
2023-11-23T04:56:39.878Z,1012.01
2023-11-23T04:56:45.566Z,1011.99
2023-11-23T04:56:51.249Z,1011.99
2023-11-23T04:57:19.221Z,1011.97
2023-11-23T04:57:24.960Z,1011.98
2023-11-23T04:57:30.565Z,1011.99
2023-11-23T04:57:41.818Z,1012.00
2023-11-23T04:57:47.532Z,1012.01
2023-11-23T04:57:53.178Z,1012.00
2023-11-23T04:58:23.952Z,1012.00
2023-11-23T04:58:30.914Z,1012.02
2023-11-23T04:58:36.592Z,1012.02
2023-11-23T04:58:42.267Z,1012.02
2023-11-23T04:58:47.964Z,1012.03
2023-11-23T04:58:53.642Z,1012.02
2023-11-23T04:59:21.633Z,1012.03
2023-11-23T04:59:32.919Z,1012.04
2023-11-23T04:59:38.582Z,1012.04
2023-11-23T04:59:44.259Z,1012.03
2023-11-23T04:59:49.955Z,1012.05
2023-11-23T04:59:55.623Z,1012.05
2023-11-23T05:00:23.646Z,1012.02
2023-11-23T05:00:35.003Z,1012.04
2023-11-23T05:00:40.723Z,1012.04
2023-11-23T05:00:46.370Z,1012.04
2023-11-23T05:00:52.061Z,1012.03
2023-11-23T05:00:57.746Z,1012.02
2023-11-23T05:01:25.752Z,1012.03
2023-11-23T05:01:37.054Z,1012.01
2023-11-23T05:01:42.753Z,1012.01
2023-11-23T05:01:48.450Z,1012.02
2023-11-23T05:01:54.150Z,1012.02
2023-11-23T05:01:59.835Z,1012.02
2023-11-23T05:02:27.758Z,1011.96
2023-11-23T05:02:39.049Z,1011.99
2023-11-23T05:02:44.953Z,1011.98
2023-11-23T05:02:50.677Z,1011.97
2023-11-23T05:02:56.356Z,1011.97
2023-11-23T05:03:02.062Z,1011.99
2023-11-23T05:03:30.140Z,1011.97
2023-11-23T05:03:41.487Z,1011.98
2023-11-23T05:03:47.222Z,1011.97
2023-11-23T05:03:52.929Z,1011.95
2023-11-23T05:03:59.037Z,1011.93
2023-11-23T05:04:06.263Z,1011.96
2023-11-23T05:04:34.521Z,1011.91
2023-11-23T05:04:45.786Z,1011.91
2023-11-23T05:04:51.459Z,1011.93
2023-11-23T05:04:57.166Z,1011.95
2023-11-23T05:05:02.823Z,1011.97
2023-11-23T05:05:08.499Z,1011.95
2023-11-23T05:05:36.507Z,1011.96
2023-11-23T05:05:47.789Z,1011.97
2023-11-23T05:05:53.437Z,1011.95
2023-11-23T05:05:59.152Z,1011.94
2023-11-23T05:06:04.802Z,1011.92
2023-11-23T05:06:10.502Z,1011.91
2023-11-23T05:06:38.462Z,1011.89
2023-11-23T05:06:49.796Z,1011.92
2023-11-23T05:06:55.408Z,1011.93
2023-11-23T05:07:01.088Z,1011.94
2023-11-23T05:07:06.814Z,1011.93
2023-11-23T05:07:12.465Z,1011.92
2023-11-23T05:07:40.508Z,1011.91
2023-11-23T05:07:51.704Z,1011.91
2023-11-23T05:07:57.377Z,1011.90
2023-11-23T05:08:03.073Z,1011.90
2023-11-23T05:08:08.739Z,1011.91
2023-11-23T05:08:14.440Z,1011.91
2023-11-23T05:08:42.469Z,1011.90
2023-11-23T05:08:53.752Z,1011.92
2023-11-23T05:08:59.443Z,1011.91
2023-11-23T05:09:05.125Z,1011.90
2023-11-23T05:09:10.818Z,1011.91
2023-11-23T05:09:16.628Z,1011.90
2023-11-23T05:09:44.581Z,1011.85
2023-11-23T05:09:56.826Z,1011.89
2023-11-23T05:10:02.506Z,1011.90
2023-11-23T05:10:08.191Z,1011.89
2023-11-23T05:10:13.871Z,1011.87
2023-11-23T05:10:19.544Z,1011.88
2023-11-23T05:10:47.510Z,1011.88
2023-11-23T05:10:58.788Z,1011.86
2023-11-23T05:11:04.462Z,1011.87
2023-11-23T05:11:10.130Z,1011.86
2023-11-23T05:11:15.806Z,1011.88
2023-11-23T05:11:21.476Z,1011.88
2023-11-23T05:11:49.543Z,1011.82
2023-11-23T05:12:00.844Z,1011.80
2023-11-23T05:12:06.592Z,1011.81
2023-11-23T05:12:12.323Z,1011.80
2023-11-23T05:12:17.957Z,1011.82
2023-11-23T05:12:23.664Z,1011.84
2023-11-23T05:12:52.377Z,1011.84
2023-11-23T05:13:03.614Z,1011.85
2023-11-23T05:13:09.290Z,1011.89
2023-11-23T05:13:15.021Z,1011.85
2023-11-23T05:13:20.668Z,1011.84
2023-11-23T05:13:26.386Z,1011.84
2023-11-23T05:13:54.335Z,1011.84
2023-11-23T05:14:05.621Z,1011.87
2023-11-23T05:14:11.276Z,1011.86
2023-11-23T05:14:16.944Z,1011.85
2023-11-23T05:14:22.678Z,1011.83
2023-11-23T05:14:28.357Z,1011.85
2023-11-23T05:14:56.431Z,1011.86
2023-11-23T05:15:07.696Z,1011.86
2023-11-23T05:15:13.373Z,1011.85
2023-11-23T05:15:19.066Z,1011.84
2023-11-23T05:15:24.791Z,1011.83
2023-11-23T05:15:30.547Z,1011.83
2023-11-23T05:15:58.460Z,1011.91
2023-11-23T05:16:09.725Z,1011.79
2023-11-23T05:16:15.537Z,1011.82
2023-11-23T05:16:21.210Z,1011.86
2023-11-23T05:16:26.863Z,1011.86
2023-11-23T05:16:32.546Z,1011.86
2023-11-23T05:17:00.505Z,1011.86
2023-11-23T05:17:11.790Z,1011.79
2023-11-23T05:17:17.439Z,1011.80
2023-11-23T05:17:23.115Z,1011.80
2023-11-23T05:17:28.830Z,1011.81
2023-11-23T05:17:34.521Z,1011.78
2023-11-23T05:18:02.525Z,1011.81
2023-11-23T05:18:13.877Z,1011.80
2023-11-23T05:18:19.632Z,1011.79
2023-11-23T05:18:25.351Z,1011.78
2023-11-23T05:18:31.102Z,1011.74
2023-11-23T05:18:36.883Z,1011.75
2023-11-23T05:19:04.831Z,1011.77
2023-11-23T05:19:24.273Z,1011.74
2023-11-23T05:19:42.480Z,1011.75
2023-11-23T05:19:54.593Z,1011.72
2023-11-23T05:20:00.825Z,1011.72
2023-11-23T05:20:06.595Z,1011.71
2023-11-23T05:20:12.268Z,1011.69
2023-11-23T05:20:17.989Z,1011.67
2023-11-23T05:20:40.347Z,1011.67
2023-11-23T05:20:57.211Z,1011.70
2023-11-23T05:21:02.891Z,1011.71
2023-11-23T05:21:08.578Z,1011.71
2023-11-23T05:21:14.248Z,1011.69
2023-11-23T05:21:19.962Z,1011.67
2023-11-23T05:21:42.304Z,1011.65
2023-11-23T05:21:59.142Z,1011.70
2023-11-23T05:22:04.822Z,1011.66
2023-11-23T05:22:10.623Z,1011.64
2023-11-23T05:22:16.281Z,1011.65
2023-11-23T05:22:21.958Z,1011.66
2023-11-23T05:22:44.441Z,1011.68
2023-11-23T05:23:01.240Z,1011.66
2023-11-23T05:23:06.915Z,1011.66
2023-11-23T05:23:12.603Z,1011.64
2023-11-23T05:23:18.308Z,1011.62
2023-11-23T05:23:23.964Z,1011.60
2023-11-23T05:23:46.443Z,1011.60
2023-11-23T05:24:04.747Z,1011.68
2023-11-23T05:24:10.481Z,1011.67
2023-11-23T05:24:16.182Z,1011.61
2023-11-23T05:24:21.906Z,1011.58
2023-11-23T05:24:27.608Z,1011.56
2023-11-23T05:24:49.962Z,1011.59
2023-11-23T05:25:06.789Z,1011.57
2023-11-23T05:25:12.464Z,1011.56
2023-11-23T05:25:18.207Z,1011.55
2023-11-23T05:25:23.819Z,1011.57
2023-11-23T05:25:29.496Z,1011.55
2023-11-23T05:25:51.920Z,1011.56
2023-11-23T05:26:08.757Z,1011.57
2023-11-23T05:26:14.414Z,1011.56
2023-11-23T05:26:20.134Z,1011.56
2023-11-23T05:26:25.792Z,1011.57
2023-11-23T05:26:31.466Z,1011.58
2023-11-23T05:26:53.919Z,1011.58
2023-11-23T05:27:10.701Z,1011.57
2023-11-23T05:27:16.427Z,1011.55
2023-11-23T05:27:22.084Z,1011.56
2023-11-23T05:27:27.898Z,1011.55
2023-11-23T05:27:33.634Z,1011.53
2023-11-23T05:27:55.987Z,1011.61
2023-11-23T05:28:12.779Z,1011.61
2023-11-23T05:28:18.464Z,1011.60
2023-11-23T05:28:24.124Z,1011.57
2023-11-23T05:28:29.824Z,1011.56
2023-11-23T05:28:35.504Z,1011.56
2023-11-23T05:28:57.937Z,1011.56
2023-11-23T05:29:14.753Z,1011.56
2023-11-23T05:29:20.431Z,1011.54
2023-11-23T05:29:26.111Z,1011.54
2023-11-23T05:29:31.798Z,1011.53
2023-11-23T05:29:37.506Z,1011.53
2023-11-23T05:29:59.892Z,1011.56
2023-11-23T05:30:16.770Z,1011.56
2023-11-23T05:30:22.440Z,1011.59
2023-11-23T05:30:28.118Z,1011.60
2023-11-23T05:30:34.006Z,1011.59
2023-11-23T05:30:39.735Z,1011.60
2023-11-23T05:31:02.204Z,1011.55
2023-11-23T05:31:19.044Z,1011.55
2023-11-23T05:31:24.771Z,1011.57
2023-11-23T05:31:30.430Z,1011.54
2023-11-23T05:31:36.126Z,1011.54
2023-11-23T05:31:41.749Z,1011.57
2023-11-23T05:32:04.172Z,1011.59
2023-11-23T05:32:21.033Z,1011.64
2023-11-23T05:32:26.814Z,1011.65
2023-11-23T05:32:32.557Z,1011.64
2023-11-23T05:32:38.256Z,1011.62
2023-11-23T05:32:43.914Z,1011.61
2023-11-23T05:33:06.378Z,1011.64
2023-11-23T05:33:25.662Z,1011.63
2023-11-23T05:33:31.623Z,1011.61
2023-11-23T05:33:37.351Z,1011.61
2023-11-23T05:33:43.103Z,1011.63
2023-11-23T05:33:48.851Z,1011.63
2023-11-23T05:34:11.203Z,1011.64
2023-11-23T05:34:28.033Z,1011.69
2023-11-23T05:34:33.722Z,1011.70
2023-11-23T05:34:39.390Z,1011.67
2023-11-23T05:34:45.069Z,1011.66
2023-11-23T05:34:50.761Z,1011.69
2023-11-23T05:35:13.158Z,1011.68
2023-11-23T05:35:30.010Z,1011.71
2023-11-23T05:35:35.675Z,1011.67
2023-11-23T05:35:41.452Z,1011.65
2023-11-23T05:35:47.124Z,1011.64
2023-11-23T05:35:53.561Z,1011.63
2023-11-23T05:36:14.822Z,1011.69
2023-11-23T05:36:31.606Z,1011.69
2023-11-23T05:36:37.282Z,1011.67
2023-11-23T05:36:43.024Z,1011.66
2023-11-23T05:36:48.687Z,1011.67
2023-11-23T05:36:54.377Z,1011.67
2023-11-23T05:37:16.779Z,1011.58
2023-11-23T05:37:33.687Z,1011.61
2023-11-23T05:37:39.377Z,1011.62
2023-11-23T05:37:45.041Z,1011.63
2023-11-23T05:37:50.717Z,1011.65
2023-11-23T05:37:56.410Z,1011.66
2023-11-23T05:38:18.797Z,1011.68
2023-11-23T05:38:35.653Z,1011.73
2023-11-23T05:38:41.333Z,1011.71
2023-11-23T05:38:47.097Z,1011.68
2023-11-23T05:38:52.856Z,1011.68
2023-11-23T05:38:58.630Z,1011.68
2023-11-23T05:39:21.048Z,1011.69
2023-11-23T05:39:40.768Z,1011.68
2023-11-23T05:39:48.416Z,1011.71
2023-11-23T05:39:54.089Z,1011.69
2023-11-23T05:39:59.786Z,1011.69
2023-11-23T05:40:05.512Z,1011.68
2023-11-23T05:40:22.312Z,1011.69
2023-11-23T05:40:39.126Z,1011.72
2023-11-23T05:40:50.376Z,1011.67
2023-11-23T05:40:56.062Z,1011.67
2023-11-23T05:41:01.740Z,1011.70
2023-11-23T05:41:07.408Z,1011.66
2023-11-23T05:41:24.231Z,1011.66
2023-11-23T05:41:41.054Z,1011.71
2023-11-23T05:41:52.385Z,1011.69
2023-11-23T05:41:58.075Z,1011.71
2023-11-23T05:42:03.722Z,1011.72
2023-11-23T05:42:09.382Z,1011.69
2023-11-23T05:42:26.334Z,1011.66
2023-11-23T05:42:50.878Z,1011.65
2023-11-23T05:43:05.820Z,1011.71
2023-11-23T05:43:23.081Z,1011.65
2023-11-23T05:43:29.072Z,1011.64
2023-11-23T05:43:34.753Z,1011.64
2023-11-23T05:43:40.426Z,1011.63
2023-11-23T05:43:46.100Z,1011.62
2023-11-23T05:44:02.930Z,1011.66
2023-11-23T05:44:25.346Z,1011.65
2023-11-23T05:44:31.640Z,1011.68
2023-11-23T05:44:37.320Z,1011.67
2023-11-23T05:44:43.007Z,1011.65
2023-11-23T05:44:48.726Z,1011.64
2023-11-23T05:45:05.571Z,1011.70
2023-11-23T05:45:27.978Z,1011.70
2023-11-23T05:45:33.795Z,1011.69
2023-11-23T05:45:39.417Z,1011.65
2023-11-23T05:45:45.109Z,1011.64
2023-11-23T05:45:50.779Z,1011.65
2023-11-23T05:46:07.622Z,1011.71
2023-11-23T05:46:29.982Z,1011.68
2023-11-23T05:46:35.692Z,1011.71
2023-11-23T05:46:41.411Z,1011.71
2023-11-23T05:46:47.082Z,1011.69
2023-11-23T05:46:52.764Z,1011.69
2023-11-23T05:47:09.591Z,1011.71
2023-11-23T05:47:32.011Z,1011.70
2023-11-23T05:47:37.679Z,1011.70
2023-11-23T05:47:43.376Z,1011.70
2023-11-23T05:47:49.803Z,1011.72
2023-11-23T05:47:55.505Z,1011.71
2023-11-23T05:48:12.377Z,1011.69
2023-11-23T05:48:34.933Z,1011.69
2023-11-23T05:48:40.676Z,1011.68
2023-11-23T05:48:46.296Z,1011.68
2023-11-23T05:48:51.994Z,1011.70
2023-11-23T05:48:57.661Z,1011.70
2023-11-23T05:49:14.490Z,1011.70
2023-11-23T05:49:36.940Z,1011.68
2023-11-23T05:49:42.618Z,1011.70
2023-11-23T05:49:48.299Z,1011.70
2023-11-23T05:49:53.990Z,1011.71
2023-11-23T05:49:59.666Z,1011.72
2023-11-23T05:50:16.473Z,1011.70
2023-11-23T05:50:38.883Z,1011.67
2023-11-23T05:50:44.554Z,1011.66
2023-11-23T05:50:50.280Z,1011.65
2023-11-23T05:50:55.918Z,1011.66
2023-11-23T05:51:01.609Z,1011.67
2023-11-23T05:51:18.457Z,1011.66
2023-11-23T05:51:40.848Z,1011.67
2023-11-23T05:51:46.512Z,1011.66
2023-11-23T05:51:52.180Z,1011.67
2023-11-23T05:51:57.855Z,1011.66
2023-11-23T05:52:03.538Z,1011.66
2023-11-23T05:52:20.375Z,1011.66
2023-11-23T05:52:42.765Z,1011.63
2023-11-23T05:52:48.446Z,1011.64
2023-11-23T05:52:54.157Z,1011.66
2023-11-23T05:52:59.809Z,1011.65
2023-11-23T05:53:05.517Z,1011.63
2023-11-23T05:53:22.303Z,1011.61
2023-11-23T05:53:44.774Z,1011.65
2023-11-23T05:53:50.475Z,1011.63
2023-11-23T05:53:56.173Z,1011.63
2023-11-23T05:54:01.845Z,1011.61
2023-11-23T05:54:07.553Z,1011.60
2023-11-23T05:54:24.405Z,1011.57
2023-11-23T05:54:46.780Z,1011.57
2023-11-23T05:54:52.507Z,1011.60
2023-11-23T05:54:58.157Z,1011.59
2023-11-23T05:55:03.826Z,1011.52
2023-11-23T05:55:09.507Z,1011.58
2023-11-23T05:55:26.340Z,1011.56
2023-11-23T05:55:48.735Z,1011.58
2023-11-23T05:55:54.454Z,1011.57
2023-11-23T05:56:00.112Z,1011.59
2023-11-23T05:56:05.789Z,1011.60
2023-11-23T05:56:11.459Z,1011.57
2023-11-23T05:56:28.360Z,1011.52
2023-11-23T05:56:50.727Z,1011.56
2023-11-23T05:56:56.427Z,1011.57
2023-11-23T05:57:02.116Z,1011.55
2023-11-23T05:57:07.768Z,1011.54
2023-11-23T05:57:13.435Z,1011.54
2023-11-23T05:57:30.257Z,1011.56
2023-11-23T05:57:52.674Z,1011.49
2023-11-23T05:57:58.361Z,1011.49
2023-11-23T05:58:04.028Z,1011.51
2023-11-23T05:58:09.776Z,1011.52
2023-11-23T05:58:15.401Z,1011.52
2023-11-23T05:58:32.244Z,1011.55
2023-11-23T05:58:54.654Z,1011.55
2023-11-23T05:59:00.338Z,1011.54
2023-11-23T05:59:06.023Z,1011.56
2023-11-23T05:59:11.699Z,1011.57
2023-11-23T05:59:17.406Z,1011.57
2023-11-23T05:59:34.214Z,1011.53
2023-11-23T05:59:56.679Z,1011.55
2023-11-23T06:00:02.357Z,1011.54
2023-11-23T06:00:08.041Z,1011.53
2023-11-23T06:00:13.779Z,1011.53
2023-11-23T06:00:19.495Z,1011.54
2023-11-23T06:00:36.308Z,1011.54
2023-11-23T06:01:07.202Z,1011.54
2023-11-23T06:01:14.967Z,1011.56
2023-11-23T06:01:20.645Z,1011.55
2023-11-23T06:01:26.331Z,1011.55
2023-11-23T06:01:32.000Z,1011.55
2023-11-23T06:01:37.673Z,1011.56
2023-11-23T06:02:00.205Z,1011.53
2023-11-23T06:02:17.176Z,1011.54
2023-11-23T06:02:22.873Z,1011.55
2023-11-23T06:02:28.577Z,1011.56
2023-11-23T06:02:34.290Z,1011.56
2023-11-23T06:02:39.972Z,1011.56
2023-11-23T06:03:02.425Z,1011.50
2023-11-23T06:03:22.022Z,1011.56
2023-11-23T06:03:29.556Z,1011.51
2023-11-23T06:03:35.364Z,1011.51
2023-11-23T06:03:41.068Z,1011.52
2023-11-23T06:03:46.875Z,1011.53
2023-11-23T06:04:04.009Z,1011.58
2023-11-23T06:04:20.981Z,1011.54
2023-11-23T06:04:32.360Z,1011.53
2023-11-23T06:04:38.110Z,1011.51
2023-11-23T06:04:43.875Z,1011.51
2023-11-23T06:04:49.720Z,1011.50
2023-11-23T06:05:06.629Z,1011.50
2023-11-23T06:05:23.449Z,1011.46
2023-11-23T06:05:34.742Z,1011.48
2023-11-23T06:05:40.401Z,1011.50
2023-11-23T06:05:46.076Z,1011.50
2023-11-23T06:05:51.774Z,1011.50
2023-11-23T06:06:08.628Z,1011.51
2023-11-23T06:06:25.452Z,1011.50
2023-11-23T06:06:36.684Z,1011.51
2023-11-23T06:06:42.351Z,1011.53
2023-11-23T06:06:48.043Z,1011.49
2023-11-23T06:06:53.720Z,1011.45
2023-11-23T06:07:10.544Z,1011.52
2023-11-23T06:07:27.377Z,1011.50
2023-11-23T06:07:38.678Z,1011.53
2023-11-23T06:07:44.330Z,1011.52
2023-11-23T06:07:50.002Z,1011.48
2023-11-23T06:07:55.679Z,1011.46
2023-11-23T06:08:12.546Z,1011.52
2023-11-23T06:08:29.336Z,1011.45
2023-11-23T06:08:40.585Z,1011.47
2023-11-23T06:08:46.308Z,1011.49
2023-11-23T06:08:52.022Z,1011.51
2023-11-23T06:08:57.694Z,1011.48
2023-11-23T06:09:14.518Z,1011.46
2023-11-23T06:09:31.325Z,1011.49
2023-11-23T06:09:42.564Z,1011.45
2023-11-23T06:09:48.242Z,1011.43
2023-11-23T06:09:53.957Z,1011.46
2023-11-23T06:09:59.635Z,1011.46
2023-11-23T06:10:16.454Z,1011.42
2023-11-23T06:10:33.258Z,1011.44
2023-11-23T06:10:44.512Z,1011.44
2023-11-23T06:10:50.187Z,1011.44
2023-11-23T06:10:55.876Z,1011.45
2023-11-23T06:11:01.588Z,1011.44
2023-11-23T06:11:18.416Z,1011.43
2023-11-23T06:11:35.226Z,1011.43
2023-11-23T06:11:46.568Z,1011.45
2023-11-23T06:11:52.266Z,1011.45
2023-11-23T06:11:57.942Z,1011.44
2023-11-23T06:12:03.645Z,1011.46
2023-11-23T06:12:20.465Z,1011.46
2023-11-23T06:12:37.298Z,1011.46
2023-11-23T06:12:48.511Z,1011.43
2023-11-23T06:12:54.180Z,1011.44
2023-11-23T06:12:59.857Z,1011.43
2023-11-23T06:13:05.540Z,1011.43
2023-11-23T06:13:22.374Z,1011.43
2023-11-23T06:13:39.212Z,1011.45